Time;durP1;ratioP1;P1;durP2;ratioP2;P2;SDS_P1;SDS_P2;PMS_P1;PMS_P2;Temp;Humidity;BMP_temperature;BMP_pressure;BME280_temperature;BME280_humidity;BME280_pressure;Samples;Min_cycle;Max_cycle;Signal;HPM_P1;HPM_P2
2021/07/27 00:00:10;;;;;;;;;;;21.50;99.90;;;;;;2092644;28;1055;-57
2021/07/27 00:01:30;;;;;;;;;;;21.50;99.90;;;;;;2091767;28;1658;-59
2021/07/27 00:02:49;;;;;;;;;;;21.50;99.90;;;;;;2086152;28;618;-57
2021/07/27 00:04:08;;;;;;;;;;;21.50;99.90;;;;;;2089409;28;721;-57
2021/07/27 00:05:28;;;;;;;;;;;21.50;99.90;;;;;;2089714;28;1731;-56
2021/07/27 00:06:47;;;;;;;;;;;21.50;99.90;;;;;;2097325;28;705;-57
2021/07/27 00:08:10;;;;;;;;;;;21.50;99.90;;;;;;2092734;28;703;-59
2021/07/27 00:09:29;;;;;;;;;;;21.60;99.90;;;;;;2089978;28;729;-58
2021/07/27 00:10:48;;;;;;;;;;;21.50;99.90;;;;;;2105367;28;753;-56
2021/07/27 00:12:07;;;;;;;;;;;21.50;99.90;;;;;;2092252;28;747;-58
2021/07/27 00:13:27;;;;;;;;;;;21.50;99.90;;;;;;2089361;28;716;-57
2021/07/27 00:14:46;;;;;;;;;;;21.50;99.90;;;;;;2085636;28;2053;-58
2021/07/27 00:16:05;;;;;;;;;;;21.50;99.90;;;;;;2094283;28;1469;-58
2021/07/27 00:17:28;;;;;;;;;;;21.50;99.90;;;;;;2092532;28;967;-56
2021/07/27 00:18:47;;;;;;;;;;;21.50;99.90;;;;;;2089089;28;692;-59
2021/07/27 00:20:07;;;;;;;;;;;21.50;99.90;;;;;;2085842;28;733;-57
2021/07/27 00:21:26;;;;;;;;;;;21.50;99.90;;;;;;2086130;28;706;-59
2021/07/27 00:22:45;;;;;;;;;;;21.50;99.90;;;;;;2085782;28;763;-58
2021/07/27 00:24:05;;;;;;;;;;;21.50;99.90;;;;;;2086116;28;676;-55
2021/07/27 00:25:24;;;;;;;;;;;21.50;99.90;;;;;;2080377;28;1981;-57
2021/07/27 00:26:43;;;;;;;;;;;21.50;99.90;;;;;;2077532;28;678;-59
2021/07/27 00:28:02;;;;;;;;;;;21.50;99.90;;;;;;2088011;28;963;-59
2021/07/27 00:29:22;;;;;;;;;;;21.50;99.90;;;;;;2092419;28;1043;-57
2021/07/27 00:30:41;;;;;;;;;;;21.50;99.90;;;;;;2088130;28;1115;-57
2021/07/27 00:32:01;;;;;;;;;;;21.50;99.90;;;;;;2088187;28;1684;-55
2021/07/27 00:33:20;;;;;;;;;;;21.50;99.90;;;;;;2086459;28;777;-56
2021/07/27 00:34:40;;;;;;;;;;;21.50;99.90;;;;;;2087039;28;2111;-56
2021/07/27 00:36:02;;;;;;;;;;;21.50;99.90;;;;;;2090824;28;1286;-57
2021/07/27 00:37:28;;;;;;;;;;;21.50;99.90;;;;;;2090498;28;710;-55
2021/07/27 00:38:47;;;;;;;;;;;21.50;99.90;;;;;;2090998;28;657;-54
2021/07/27 00:40:06;;;;;;;;;;;21.50;99.90;;;;;;2089822;28;729;-60
2021/07/27 00:41:25;;;;;;;;;;;21.50;99.90;;;;;;2090845;28;851;-54
2021/07/27 00:42:45;;;;;;;;;;;21.50;99.90;;;;;;2091096;28;1560;-56
2021/07/27 00:44:04;;;;;;;;;;;21.50;99.90;;;;;;2090274;28;786;-56
2021/07/27 00:45:24;;;;;;;;;;;21.50;99.90;;;;;;2088258;28;1902;-56
2021/07/27 00:46:43;;;;;;;;;;;21.50;99.90;;;;;;2090488;28;597;-60
2021/07/27 00:48:03;;;;;;;;;;;21.50;99.90;;;;;;2082087;28;716;-57
2021/07/27 00:49:22;;;;;;;;;;;21.50;99.90;;;;;;2095695;28;657;-58
2021/07/27 00:50:41;;;;;;;;;;;21.50;99.90;;;;;;2088549;28;681;-55
2021/07/27 00:52:00;;;;;;;;;;;21.50;99.90;;;;;;2090435;28;740;-58
2021/07/27 00:53:19;;;;;;;;;;;21.40;99.90;;;;;;2085813;28;622;-54
2021/07/27 00:54:38;;;;;;;;;;;21.40;99.90;;;;;;2090464;28;1616;-60
2021/07/27 00:55:58;;;;;;;;;;;21.50;99.90;;;;;;2090211;28;1442;-57
2021/07/27 00:57:17;;;;;;;;;;;21.50;99.90;;;;;;2074056;28;1723;-58
2021/07/27 00:58:36;;;;;;;;;;;21.50;99.90;;;;;;2090366;28;954;-55
2021/07/27 00:59:56;;;;;;;;;;;21.40;99.90;;;;;;2090750;28;893;-59
2021/07/27 01:01:15;;;;;;;;;;;21.40;99.90;;;;;;2098622;28;661;-56
2021/07/27 01:02:34;;;;;;;;;;;21.40;99.90;;;;;;2091991;28;1453;-56
2021/07/27 01:03:54;;;;;;;;;;;21.40;99.90;;;;;;2095404;28;657;-56
2021/07/27 01:05:13;;;;;;;;;;;21.40;99.90;;;;;;2098484;28;1915;-56
2021/07/27 01:06:32;;;;;;;;;;;21.40;99.90;;;;;;2081871;28;1349;-55
2021/07/27 01:07:52;;;;;;;;;;;21.40;99.90;;;;;;2083681;28;622;-55
2021/07/27 01:09:11;;;;;;;;;;;21.40;99.90;;;;;;2087037;28;720;-55
2021/07/27 01:10:30;;;;;;;;;;;21.40;99.90;;;;;;2086511;28;686;-61
2021/07/27 01:11:49;;;;;;;;;;;21.40;99.90;;;;;;2087036;28;645;-58
2021/07/27 01:13:08;;;;;;;;;;;21.40;99.90;;;;;;2087026;28;634;-57
2021/07/27 01:14:28;;;;;;;;;;;21.40;99.90;;;;;;2090583;28;609;-57
2021/07/27 01:15:47;;;;;;;;;;;21.40;99.90;;;;;;2089312;28;1549;-59
2021/07/27 01:17:06;;;;;;;;;;;21.40;99.90;;;;;;2095038;28;872;-60
2021/07/27 01:18:28;;;;;;;;;;;21.40;99.90;;;;;;2090258;28;709;-58
2021/07/27 01:19:54;;;;;;;;;;;21.40;99.90;;;;;;2087196;28;602;-57
2021/07/27 01:37:49;;;;;;;;;;;21.40;99.90;;;;;;2086893;28;748;-54
2021/07/27 01:39:26;;;;;;;;;;;21.40;99.90;;;;;;2086177;28;937;-59
2021/07/27 01:40:59;;;;;;;;;;;21.40;99.90;;;;;;2082519;28;897;-56
2021/07/27 01:42:20;;;;;;;;;;;21.40;99.90;;;;;;2089961;28;776;-59
2021/07/27 01:43:40;;;;;;;;;;;21.40;99.90;;;;;;2087903;28;1128;-59
2021/07/27 01:45:12;;;;;;;;;;;21.40;99.90;;;;;;2081767;28;1977;-56
2021/07/27 01:46:33;;;;;;;;;;;21.40;99.90;;;;;;2089469;28;1927;-60
2021/07/27 01:47:53;;;;;;;;;;;21.40;99.90;;;;;;2086395;28;1823;-57
2021/07/27 01:49:12;;;;;;;;;;;21.40;99.90;;;;;;2089008;28;1343;-58
2021/07/27 01:50:31;;;;;;;;;;;21.40;99.90;;;;;;2087825;28;1286;-57
2021/07/27 01:51:53;;;;;;;;;;;21.40;99.90;;;;;;2097939;28;1221;-56
2021/07/27 01:53:15;;;;;;;;;;;21.40;99.90;;;;;;2088352;28;1309;-56
2021/07/27 01:54:47;;;;;;;;;;;21.40;99.90;;;;;;2087276;28;1140;-56
2021/07/27 01:56:06;;;;;;;;;;;21.40;99.90;;;;;;2089116;28;1622;-55
2021/07/27 01:57:28;;;;;;;;;;;21.30;99.90;;;;;;2087379;28;1298;-57
2021/07/27 01:58:48;;;;;;;;;;;21.40;99.90;;;;;;2086307;28;1113;-55
2021/07/27 02:00:08;;;;;;;;;;;21.40;99.90;;;;;;2095658;28;1239;-55
2021/07/27 02:01:28;;;;;;;;;;;21.30;99.90;;;;;;2089896;28;1153;-58
2021/07/27 02:02:47;;;;;;;;;;;21.30;99.90;;;;;;2089900;28;1141;-56
2021/07/27 02:04:06;;;;;;;;;;;21.30;99.90;;;;;;2091327;28;1468;-56
2021/07/27 02:05:25;;;;;;;;;;;21.30;99.90;;;;;;2086439;28;1956;-56
2021/07/27 02:06:45;;;;;;;;;;;21.30;99.90;;;;;;2086507;28;1072;-59
2021/07/27 02:08:04;;;;;;;;;;;21.30;99.90;;;;;;2086222;28;1087;-56
2021/07/27 02:09:24;;;;;;;;;;;21.30;99.90;;;;;;2089496;28;1275;-57
2021/07/27 02:10:48;;;;;;;;;;;21.30;99.90;;;;;;2097163;28;1314;-58
2021/07/27 02:12:16;;;;;;;;;;;21.30;99.90;;;;;;2081389;28;965;-58
2021/07/27 02:13:45;;;;;;;;;;;21.30;99.90;;;;;;2087538;28;1351;-58
2021/07/27 02:16:24;;;;;;;;;;;21.30;99.90;;;;;;2088150;28;1512;-54
2021/07/27 02:17:44;;;;;;;;;;;21.30;99.90;;;;;;2092475;28;1445;-59
2021/07/27 02:19:04;;;;;;;;;;;21.30;99.90;;;;;;2087388;28;1405;-57
2021/07/27 02:20:24;;;;;;;;;;;21.30;99.90;;;;;;2087395;28;1395;-59
2021/07/27 02:21:43;;;;;;;;;;;21.30;99.90;;;;;;2089159;28;1329;-55
2021/07/27 02:23:03;;;;;;;;;;;21.30;99.90;;;;;;2087906;28;1306;-56
2021/07/27 02:24:22;;;;;;;;;;;21.30;99.90;;;;;;2087203;28;1095;-56
2021/07/27 02:25:41;;;;;;;;;;;21.30;99.90;;;;;;2090400;28;1503;-56
2021/07/27 02:27:00;;;;;;;;;;;21.30;99.90;;;;;;2100453;28;1098;-55
2021/07/27 02:28:20;;;;;;;;;;;21.30;99.90;;;;;;2089667;28;1152;-57
2021/07/27 02:29:39;;;;;;;;;;;21.30;99.90;;;;;;2077594;28;1201;-59
2021/07/27 02:31:00;;;;;;;;;;;21.30;99.90;;;;;;2083403;28;1302;-56
2021/07/27 02:32:20;;;;;;;;;;;21.30;99.90;;;;;;2089605;28;1470;-56
2021/07/27 02:33:39;;;;;;;;;;;21.30;99.90;;;;;;2089780;28;1056;-56
2021/07/27 02:34:58;;;;;;;;;;;21.30;99.90;;;;;;2101783;28;1059;-56
2021/07/27 02:36:18;;;;;;;;;;;21.30;99.90;;;;;;2089372;28;1567;-56
2021/07/27 02:37:37;;;;;;;;;;;21.20;99.90;;;;;;2086791;28;1229;-57
2021/07/27 02:38:56;;;;;;;;;;;21.20;99.90;;;;;;2087014;28;1139;-58
2021/07/27 02:40:15;;;;;;;;;;;21.30;99.90;;;;;;2089718;28;1391;-57
2021/07/27 02:41:34;;;;;;;;;;;21.30;99.90;;;;;;2088042;28;1511;-57
2021/07/27 02:42:56;;;;;;;;;;;21.30;99.90;;;;;;2083349;28;1231;-57
2021/07/27 02:44:15;;;;;;;;;;;21.20;99.90;;;;;;2088006;28;1421;-55
2021/07/27 02:45:35;;;;;;;;;;;21.30;99.90;;;;;;2087899;28;1216;-54
2021/07/27 02:46:54;;;;;;;;;;;21.30;99.90;;;;;;2086202;28;1263;-57
2021/07/27 02:48:13;;;;;;;;;;;21.30;99.90;;;;;;2088656;28;1514;-56
2021/07/27 02:49:33;;;;;;;;;;;21.20;99.90;;;;;;2100281;28;1326;-56
2021/07/27 02:50:59;;;;;;;;;;;21.30;99.90;;;;;;2092328;28;1209;-62
2021/07/27 02:52:19;;;;;;;;;;;21.30;99.90;;;;;;2090265;28;1104;-58
2021/07/27 02:53:38;;;;;;;;;;;21.30;99.90;;;;;;2089663;28;1020;-59
2021/07/27 02:54:57;;;;;;;;;;;21.20;99.90;;;;;;2091912;28;1130;-55
2021/07/27 02:56:17;;;;;;;;;;;21.20;99.90;;;;;;2092577;28;1414;-57
2021/07/27 02:57:36;;;;;;;;;;;21.20;99.90;;;;;;2092520;28;1261;-57
2021/07/27 02:58:56;;;;;;;;;;;21.20;99.90;;;;;;2100659;28;1405;-57
2021/07/27 03:00:16;;;;;;;;;;;21.20;99.90;;;;;;2090202;28;1247;-55
2021/07/27 03:01:35;;;;;;;;;;;21.20;99.90;;;;;;2083104;28;1061;-56
2021/07/27 03:02:56;;;;;;;;;;;21.20;99.90;;;;;;2086804;28;1213;-60
2021/07/27 03:04:18;;;;;;;;;;;21.20;99.90;;;;;;2097263;28;1261;-56
2021/07/27 03:05:37;;;;;;;;;;;21.20;99.90;;;;;;2095163;28;1413;-59
2021/07/27 03:06:56;;;;;;;;;;;21.20;99.90;;;;;;2082074;28;1289;-59
2021/07/27 03:08:19;;;;;;;;;;;21.20;99.90;;;;;;2094068;28;1340;-57
2021/07/27 03:10:17;;;;;;;;;;;21.20;99.90;;;;;;2080121;28;1310;-58
2021/07/27 03:11:18;;;;;;;;;;;21.20;99.90;;;;;;2089977;28;1071;-58
2021/07/27 03:12:37;;;;;;;;;;;21.20;99.90;;;;;;2101836;28;1177;-58
2021/07/27 03:13:56;;;;;;;;;;;21.20;99.90;;;;;;2093208;28;839;-55
2021/07/27 03:15:15;;;;;;;;;;;21.20;99.90;;;;;;2088877;28;1167;-59
2021/07/27 03:16:35;;;;;;;;;;;21.20;99.90;;;;;;2093795;28;1466;-60
2021/07/27 03:17:56;;;;;;;;;;;21.20;99.90;;;;;;2093024;28;1351;-59
2021/07/27 03:19:16;;;;;;;;;;;21.20;99.90;;;;;;2089010;28;1180;-59
2021/07/27 03:20:35;;;;;;;;;;;21.20;99.90;;;;;;2093519;28;1409;-59
2021/07/27 03:21:55;;;;;;;;;;;21.20;99.90;;;;;;2086855;28;1148;-59
2021/07/27 03:23:19;;;;;;;;;;;21.20;99.90;;;;;;2085746;28;1470;-61
2021/07/27 03:24:39;;;;;;;;;;;21.20;99.90;;;;;;2091162;28;1906;-60
2021/07/27 03:25:58;;;;;;;;;;;21.20;99.90;;;;;;2089982;28;1526;-59
2021/07/27 03:27:17;;;;;;;;;;;21.20;99.90;;;;;;2097978;28;1396;-59
2021/07/27 03:28:37;;;;;;;;;;;21.20;99.90;;;;;;2094653;28;1567;-60
2021/07/27 03:29:56;;;;;;;;;;;21.20;99.90;;;;;;2101098;28;1206;-57
2021/07/27 03:31:15;;;;;;;;;;;21.20;99.90;;;;;;2090778;28;1251;-58
2021/07/27 03:32:35;;;;;;;;;;;21.20;99.90;;;;;;2086844;28;1212;-59
2021/07/27 03:33:54;;;;;;;;;;;21.20;99.90;;;;;;2087605;28;1163;-58
2021/07/27 03:35:14;;;;;;;;;;;21.10;99.90;;;;;;2088571;28;933;-60
2021/07/27 03:36:33;;;;;;;;;;;21.10;99.90;;;;;;2102246;28;1534;-57
2021/07/27 03:37:52;;;;;;;;;;;20.90;99.90;;;;;;2093689;28;1407;-59
2021/07/27 03:39:11;;;;;;;;;;;20.90;99.90;;;;;;2090434;28;1281;-55
2021/07/27 03:40:38;;;;;;;;;;;20.90;99.90;;;;;;2090078;28;1692;-56
2021/07/27 03:41:57;;;;;;;;;;;20.90;99.90;;;;;;2080360;28;1312;-58
2021/07/27 03:43:16;;;;;;;;;;;20.90;99.90;;;;;;2080464;28;1723;-57
2021/07/27 03:44:35;;;;;;;;;;;21.00;99.90;;;;;;2089696;28;1290;-59
2021/07/27 03:45:54;;;;;;;;;;;21.00;99.90;;;;;;2097389;28;1440;-57
2021/07/27 03:47:14;;;;;;;;;;;21.00;99.90;;;;;;2090571;28;1397;-57
2021/07/27 03:48:33;;;;;;;;;;;21.00;99.90;;;;;;2089984;28;1243;-59
2021/07/27 03:49:53;;;;;;;;;;;21.10;99.90;;;;;;2086197;28;1226;-58
2021/07/27 03:51:13;;;;;;;;;;;21.10;99.90;;;;;;2084688;28;1333;-57
2021/07/27 03:52:33;;;;;;;;;;;21.10;99.90;;;;;;2087754;28;1233;-58
2021/07/27 03:53:52;;;;;;;;;;;21.10;99.90;;;;;;2097127;28;1314;-58
2021/07/27 03:55:12;;;;;;;;;;;21.10;99.90;;;;;;2090052;28;1328;-59
2021/07/27 03:56:31;;;;;;;;;;;21.10;99.90;;;;;;2091095;28;1421;-56
2021/07/27 03:57:53;;;;;;;;;;;21.10;99.90;;;;;;2088735;28;1369;-60
2021/07/27 03:59:14;;;;;;;;;;;21.10;99.90;;;;;;2086159;28;1258;-61
2021/07/27 04:00:33;;;;;;;;;;;21.10;99.90;;;;;;2086788;28;1214;-61
2021/07/27 04:01:52;;;;;;;;;;;21.10;99.90;;;;;;2097285;28;1337;-60
2021/07/27 04:03:13;;;;;;;;;;;21.10;99.90;;;;;;2091335;28;1158;-56
2021/07/27 04:04:35;;;;;;;;;;;21.10;99.90;;;;;;2079245;28;1331;-56
2021/07/27 04:05:54;;;;;;;;;;;21.10;99.90;;;;;;2091409;28;1401;-58
2021/07/27 04:07:15;;;;;;;;;;;21.10;99.90;;;;;;2084861;28;1372;-58
2021/07/27 04:08:34;;;;;;;;;;;21.10;99.90;;;;;;2086530;28;1328;-58
2021/07/27 04:09:56;;;;;;;;;;;21.10;99.90;;;;;;2078650;28;1152;-57
2021/07/27 04:11:15;;;;;;;;;;;21.10;99.90;;;;;;2087454;28;1404;-57
2021/07/27 04:12:35;;;;;;;;;;;21.10;99.90;;;;;;2090578;28;1493;-60
2021/07/27 04:13:54;;;;;;;;;;;21.10;99.90;;;;;;2090836;28;1279;-58
2021/07/27 04:15:13;;;;;;;;;;;21.10;99.90;;;;;;2089918;28;1084;-59
2021/07/27 04:16:32;;;;;;;;;;;21.10;99.90;;;;;;2090542;28;1466;-61
2021/07/27 04:17:52;;;;;;;;;;;21.10;99.90;;;;;;2072417;28;1306;-59
2021/07/27 04:19:11;;;;;;;;;;;21.10;99.90;;;;;;2078838;28;1752;-59
2021/07/27 04:20:30;;;;;;;;;;;21.10;99.90;;;;;;2085570;28;1585;-55
2021/07/27 04:21:49;;;;;;;;;;;21.10;99.90;;;;;;2089772;28;1380;-60
2021/07/27 04:23:09;;;;;;;;;;;21.10;99.90;;;;;;2100060;28;1242;-57
2021/07/27 04:24:28;;;;;;;;;;;21.10;99.90;;;;;;2090340;28;1418;-58
2021/07/27 04:25:47;;;;;;;;;;;21.10;99.90;;;;;;2090113;28;1511;-56
2021/07/27 04:27:06;;;;;;;;;;;21.10;99.90;;;;;;2087027;28;1321;-55
2021/07/27 04:28:26;;;;;;;;;;;21.10;99.90;;;;;;2086786;28;1307;-57
2021/07/27 04:29:45;;;;;;;;;;;21.10;99.90;;;;;;2087255;28;1096;-57
2021/07/27 04:31:05;;;;;;;;;;;21.10;99.90;;;;;;2091058;28;1327;-56
2021/07/27 04:32:24;;;;;;;;;;;21.10;99.90;;;;;;2090287;28;1214;-60
2021/07/27 04:33:43;;;;;;;;;;;21.10;99.90;;;;;;2086368;28;1410;-59
2021/07/27 04:35:03;;;;;;;;;;;21.10;99.90;;;;;;2082373;28;1588;-61
2021/07/27 04:36:22;;;;;;;;;;;21.10;99.90;;;;;;2087939;28;1476;-60
2021/07/27 04:37:41;;;;;;;;;;;21.10;99.90;;;;;;2089256;28;1531;-55
2021/07/27 04:39:01;;;;;;;;;;;21.10;99.90;;;;;;2090271;28;1286;-59
2021/07/27 04:40:20;;;;;;;;;;;21.10;99.90;;;;;;2090327;28;1034;-57
2021/07/27 04:41:39;;;;;;;;;;;21.10;99.90;;;;;;2101385;28;1446;-58
2021/07/27 04:42:59;;;;;;;;;;;21.10;99.90;;;;;;2090720;28;1225;-56
2021/07/27 04:44:18;;;;;;;;;;;21.10;99.90;;;;;;2091141;28;1283;-58
2021/07/27 04:45:37;;;;;;;;;;;21.10;99.90;;;;;;2094712;28;1959;-56
2021/07/27 04:46:56;;;;;;;;;;;21.10;99.90;;;;;;2085036;28;1415;-58
2021/07/27 04:48:15;;;;;;;;;;;21.10;99.90;;;;;;2086214;28;1139;-59
2021/07/27 04:49:34;;;;;;;;;;;21.10;99.90;;;;;;2090318;28;1096;-59
2021/07/27 04:50:54;;;;;;;;;;;21.00;99.90;;;;;;2089299;28;1328;-58
2021/07/27 04:52:20;;;;;;;;;;;21.00;99.90;;;;;;2093745;28;1265;-57
2021/07/27 04:53:41;;;;;;;;;;;21.00;99.90;;;;;;2103013;28;1087;-57
2021/07/27 04:55:00;;;;;;;;;;;21.00;99.90;;;;;;2089831;28;1287;-58
2021/07/27 04:56:19;;;;;;;;;;;21.10;99.90;;;;;;2087013;28;1449;-57
2021/07/27 04:57:38;;;;;;;;;;;21.10;99.90;;;;;;2089177;28;1249;-60
2021/07/27 04:58:57;;;;;;;;;;;21.10;99.90;;;;;;2094613;28;1188;-59
2021/07/27 05:00:23;;;;;;;;;;;21.10;99.90;;;;;;2094151;28;1448;-61
2021/07/27 05:01:42;;;;;;;;;;;21.00;99.90;;;;;;2081509;28;735;-61
2021/07/27 05:03:02;;;;;;;;;;;21.10;99.90;;;;;;2086713;28;622;-58
2021/07/27 05:04:21;;;;;;;;;;;21.10;99.90;;;;;;2098211;28;1581;-59
2021/07/27 05:05:40;;;;;;;;;;;21.10;99.90;;;;;;2093628;28;1524;-60
2021/07/27 05:07:00;;;;;;;;;;;21.10;99.90;;;;;;2098597;28;622;-56
2021/07/27 05:08:19;;;;;;;;;;;21.10;99.90;;;;;;2093292;28;724;-59
2021/07/27 05:09:38;;;;;;;;;;;21.10;99.90;;;;;;2085699;28;622;-57
2021/07/27 05:10:59;;;;;;;;;;;21.00;99.90;;;;;;2082089;28;709;-57
2021/07/27 05:12:18;;;;;;;;;;;21.00;99.90;;;;;;2082678;28;733;-59
2021/07/27 05:13:38;;;;;;;;;;;20.90;99.90;;;;;;2082143;28;635;-57
2021/07/27 05:14:57;;;;;;;;;;;20.90;99.90;;;;;;2084642;28;2026;-60
2021/07/27 05:16:19;;;;;;;;;;;20.90;99.90;;;;;;2082367;28;1340;-58
2021/07/27 05:17:38;;;;;;;;;;;20.90;99.90;;;;;;2089332;28;1567;-56
2021/07/27 05:19:00;;;;;;;;;;;20.90;99.90;;;;;;2098390;28;1254;-60
2021/07/27 05:20:19;;;;;;;;;;;20.90;99.90;;;;;;2089992;28;1142;-61
2021/07/27 05:21:39;;;;;;;;;;;20.90;99.90;;;;;;2087712;28;1060;-61
2021/07/27 05:22:59;;;;;;;;;;;20.90;99.90;;;;;;2086980;28;1251;-60
2021/07/27 05:24:18;;;;;;;;;;;21.00;99.90;;;;;;2091168;28;1638;-58
2021/07/27 05:25:39;;;;;;;;;;;21.00;99.90;;;;;;2101403;28;1976;-59
2021/07/27 05:26:58;;;;;;;;;;;21.00;99.90;;;;;;2090412;28;1002;-60
2021/07/27 05:28:17;;;;;;;;;;;21.00;99.90;;;;;;2090162;28;1234;-60
2021/07/27 05:29:36;;;;;;;;;;;21.10;99.90;;;;;;2088333;28;1651;-59
2021/07/27 05:30:56;;;;;;;;;;;21.10;99.90;;;;;;2090670;28;1067;-58
2021/07/27 05:32:15;;;;;;;;;;;21.10;99.90;;;;;;2093948;28;1347;-58
2021/07/27 05:33:34;;;;;;;;;;;21.10;99.90;;;;;;2088070;28;1313;-60
2021/07/27 05:34:54;;;;;;;;;;;21.10;99.90;;;;;;2089273;28;1203;-60
2021/07/27 05:36:13;;;;;;;;;;;21.10;99.90;;;;;;2093866;28;1424;-59
2021/07/27 05:37:32;;;;;;;;;;;21.10;99.90;;;;;;2095963;28;1450;-58
2021/07/27 05:38:52;;;;;;;;;;;21.10;99.90;;;;;;2100604;28;1074;-56
2021/07/27 05:40:11;;;;;;;;;;;21.10;99.90;;;;;;2093961;28;1086;-59
2021/07/27 05:41:30;;;;;;;;;;;21.10;99.90;;;;;;2090155;28;1165;-57
2021/07/27 05:42:49;;;;;;;;;;;21.10;99.90;;;;;;2087867;28;1172;-59
2021/07/27 05:44:09;;;;;;;;;;;21.10;99.90;;;;;;2085222;28;1420;-57
2021/07/27 05:45:28;;;;;;;;;;;21.00;99.90;;;;;;2095735;28;1910;-59
2021/07/27 05:46:48;;;;;;;;;;;21.10;99.90;;;;;;2093600;28;1211;-60
2021/07/27 05:48:07;;;;;;;;;;;21.10;99.90;;;;;;2088921;28;1367;-60
2021/07/27 05:49:26;;;;;;;;;;;21.10;99.90;;;;;;2089353;28;1114;-57
2021/07/27 05:50:45;;;;;;;;;;;21.10;99.90;;;;;;2086284;28;1161;-60
2021/07/27 05:52:05;;;;;;;;;;;21.10;99.90;;;;;;2087601;28;1363;-57
2021/07/27 05:53:24;;;;;;;;;;;21.10;99.90;;;;;;2099007;28;1488;-57
2021/07/27 05:54:45;;;;;;;;;;;21.10;99.90;;;;;;2082985;28;1206;-59
2021/07/27 05:56:04;;;;;;;;;;;21.10;99.90;;;;;;2086495;28;1421;-61
2021/07/27 05:57:23;;;;;;;;;;;21.10;99.90;;;;;;2099651;28;1694;-56
2021/07/27 05:58:42;;;;;;;;;;;21.10;99.90;;;;;;2082728;28;1302;-59
2021/07/27 06:00:01;;;;;;;;;;;21.10;99.90;;;;;;2085526;28;1258;-57
2021/07/27 06:01:28;;;;;;;;;;;21.10;99.90;;;;;;2090029;28;1172;-60
2021/07/27 06:02:47;;;;;;;;;;;21.10;99.90;;;;;;2097828;28;1269;-57
2021/07/27 06:04:06;;;;;;;;;;;21.10;99.90;;;;;;2098115;28;1059;-58
2021/07/27 06:05:25;;;;;;;;;;;21.10;99.90;;;;;;2090819;28;1902;-55
2021/07/27 06:06:44;;;;;;;;;;;21.10;99.90;;;;;;2087260;28;1404;-58
2021/07/27 06:08:04;;;;;;;;;;;21.10;99.90;;;;;;2087299;28;1227;-61
2021/07/27 06:09:23;;;;;;;;;;;21.10;99.90;;;;;;2086023;28;1372;-55
2021/07/27 06:10:42;;;;;;;;;;;21.10;99.90;;;;;;2095214;28;1140;-60
2021/07/27 06:12:01;;;;;;;;;;;21.10;99.90;;;;;;2089243;28;1186;-56
2021/07/27 06:13:20;;;;;;;;;;;21.10;99.90;;;;;;2097819;28;1311;-58
2021/07/27 06:14:39;;;;;;;;;;;21.10;99.90;;;;;;2094286;28;1347;-58
2021/07/27 06:16:03;;;;;;;;;;;21.10;99.90;;;;;;2090182;28;1518;-59
2021/07/27 06:17:22;;;;;;;;;;;21.10;99.90;;;;;;2092476;28;1151;-60
2021/07/27 06:18:42;;;;;;;;;;;21.10;99.90;;;;;;2090552;28;1254;-57
2021/07/27 06:20:01;;;;;;;;;;;21.10;99.90;;;;;;2092188;28;1235;-60
2021/07/27 06:21:20;;;;;;;;;;;21.10;99.90;;;;;;2093803;28;1331;-58
2021/07/27 06:22:41;;;;;;;;;;;21.10;99.90;;;;;;2091862;28;1132;-60
2021/07/27 06:24:00;;;;;;;;;;;21.10;99.90;;;;;;2088897;28;1457;-59
2021/07/27 06:25:19;;;;;;;;;;;21.10;99.90;;;;;;2092251;28;1894;-59
2021/07/27 06:26:39;;;;;;;;;;;21.10;99.90;;;;;;2092195;28;1322;-58
2021/07/27 06:27:58;;;;;;;;;;;21.10;99.90;;;;;;2084746;28;1423;-59
2021/07/27 06:29:17;;;;;;;;;;;21.10;99.90;;;;;;2085776;28;1681;-57
2021/07/27 06:30:36;;;;;;;;;;;21.10;99.90;;;;;;2090193;28;996;-58
2021/07/27 06:31:56;;;;;;;;;;;21.10;99.90;;;;;;2089387;28;1066;-58
2021/07/27 06:33:15;;;;;;;;;;;21.10;99.90;;;;;;2095646;28;1358;-58
2021/07/27 06:34:34;;;;;;;;;;;21.10;99.90;;;;;;2087088;28;1132;-58
2021/07/27 06:35:57;;;;;;;;;;;21.10;99.90;;;;;;2085966;28;1409;-60
2021/07/27 06:37:16;;;;;;;;;;;21.10;99.90;;;;;;2088591;28;1234;-59
2021/07/27 06:38:35;;;;;;;;;;;21.10;99.90;;;;;;2089087;28;1532;-56
2021/07/27 06:39:54;;;;;;;;;;;21.10;99.90;;;;;;2080336;28;1207;-60
2021/07/27 06:41:13;;;;;;;;;;;21.10;99.90;;;;;;2084852;28;1497;-57
2021/07/27 06:42:33;;;;;;;;;;;21.10;99.90;;;;;;2087877;28;1119;-57
2021/07/27 06:43:52;;;;;;;;;;;21.10;99.90;;;;;;2091558;28;1179;-61
2021/07/27 06:45:12;;;;;;;;;;;21.10;99.90;;;;;;2082687;28;1934;-58
2021/07/27 06:46:32;;;;;;;;;;;21.10;99.90;;;;;;2084136;28;1442;-57
2021/07/27 06:47:52;;;;;;;;;;;21.10;99.90;;;;;;2088970;28;1154;-57
2021/07/27 06:49:11;;;;;;;;;;;21.10;99.90;;;;;;2090440;28;1308;-55
2021/07/27 06:50:31;;;;;;;;;;;21.10;99.90;;;;;;2092026;28;1156;-58
2021/07/27 06:51:50;;;;;;;;;;;21.10;99.90;;;;;;2089811;28;1263;-58
2021/07/27 06:53:09;;;;;;;;;;;21.10;99.90;;;;;;2089063;28;1084;-57
2021/07/27 06:54:28;;;;;;;;;;;21.10;99.90;;;;;;2097485;28;1264;-61
2021/07/27 06:55:47;;;;;;;;;;;21.10;99.90;;;;;;2092368;28;1582;-56
2021/07/27 06:57:06;;;;;;;;;;;21.00;99.90;;;;;;2087984;28;1178;-62
2021/07/27 06:58:26;;;;;;;;;;;21.10;99.90;;;;;;2089108;28;1197;-58
2021/07/27 06:59:45;;;;;;;;;;;21.00;99.90;;;;;;2091734;28;1150;-60
2021/07/27 07:01:05;;;;;;;;;;;21.10;99.90;;;;;;2082546;28;1206;-62
2021/07/27 07:02:27;;;;;;;;;;;21.10;99.90;;;;;;2093295;28;1675;-62
2021/07/27 07:03:46;;;;;;;;;;;21.10;99.90;;;;;;2088547;28;1160;-59
2021/07/27 07:05:06;;;;;;;;;;;21.10;99.90;;;;;;2089196;28;1918;-59
2021/07/27 07:06:25;;;;;;;;;;;21.10;99.90;;;;;;2094483;28;1413;-64
2021/07/27 07:07:46;;;;;;;;;;;21.10;99.90;;;;;;2098316;28;1417;-57
2021/07/27 07:09:05;;;;;;;;;;;21.10;99.90;;;;;;2086202;28;1306;-59
2021/07/27 07:10:24;;;;;;;;;;;21.10;99.90;;;;;;2078916;28;1209;-56
2021/07/27 07:11:43;;;;;;;;;;;21.10;99.90;;;;;;2082438;28;1115;-59
2021/07/27 07:13:03;;;;;;;;;;;21.10;99.90;;;;;;2084486;28;1228;-59
2021/07/27 07:14:22;;;;;;;;;;;21.10;99.90;;;;;;2095369;28;1044;-59
2021/07/27 07:15:42;;;;;;;;;;;21.10;99.90;;;;;;2080579;28;1420;-63
2021/07/27 07:17:01;;;;;;;;;;;21.20;99.90;;;;;;2084374;28;1211;-56
2021/07/27 07:18:21;;;;;;;;;;;21.20;99.90;;;;;;2101706;28;1205;-59
2021/07/27 07:19:40;;;;;;;;;;;21.20;99.90;;;;;;2092512;28;1550;-58
2021/07/27 07:21:01;;;;;;;;;;;21.20;99.90;;;;;;2092488;28;1418;-58
2021/07/27 07:22:21;;;;;;;;;;;21.20;99.90;;;;;;2087671;28;1201;-58
2021/07/27 07:23:40;;;;;;;;;;;21.20;99.90;;;;;;2097324;28;1078;-59
2021/07/27 07:25:00;;;;;;;;;;;21.20;99.90;;;;;;2081812;28;2241;-58
2021/07/27 07:26:19;;;;;;;;;;;21.20;99.90;;;;;;2095054;28;1397;-58
2021/07/27 07:27:39;;;;;;;;;;;21.20;99.90;;;;;;2092427;28;1024;-57
2021/07/27 07:28:58;;;;;;;;;;;21.20;99.90;;;;;;2082425;28;1186;-57
2021/07/27 07:30:18;;;;;;;;;;;21.10;99.90;;;;;;2085350;28;1224;-57
2021/07/27 07:31:37;;;;;;;;;;;21.20;99.90;;;;;;2092617;28;1094;-58
2021/07/27 07:33:00;;;;;;;;;;;21.20;99.90;;;;;;2092150;28;1587;-55
2021/07/27 07:34:20;;;;;;;;;;;21.20;99.90;;;;;;2081416;28;1212;-63
2021/07/27 07:35:39;;;;;;;;;;;21.20;99.90;;;;;;2087113;28;1135;-57
2021/07/27 07:36:58;;;;;;;;;;;21.20;99.90;;;;;;2086243;28;1415;-58
2021/07/27 07:38:17;;;;;;;;;;;21.20;99.90;;;;;;2095520;28;1689;-60
2021/07/27 07:39:37;;;;;;;;;;;21.10;99.90;;;;;;2094374;28;1151;-60
2021/07/27 07:40:56;;;;;;;;;;;21.20;99.90;;;;;;2089763;28;938;-59
2021/07/27 07:42:16;;;;;;;;;;;21.20;99.90;;;;;;2091548;28;1128;-57
2021/07/27 07:43:35;;;;;;;;;;;21.20;99.90;;;;;;2093332;28;963;-58
2021/07/27 07:44:55;;;;;;;;;;;21.20;99.90;;;;;;2101816;28;1984;-60
2021/07/27 07:46:14;;;;;;;;;;;21.20;99.90;;;;;;2095985;28;1532;-58
2021/07/27 07:47:33;;;;;;;;;;;21.20;99.90;;;;;;2091738;28;1294;-59
2021/07/27 07:48:52;;;;;;;;;;;21.20;99.90;;;;;;2092029;28;1241;-57
2021/07/27 07:50:11;;;;;;;;;;;21.20;99.90;;;;;;2089957;28;1071;-57
2021/07/27 07:51:31;;;;;;;;;;;21.20;99.90;;;;;;2087744;28;1094;-56
2021/07/27 07:52:58;;;;;;;;;;;21.30;99.90;;;;;;2086465;28;1138;-59
2021/07/27 07:54:18;;;;;;;;;;;21.30;99.90;;;;;;2089343;28;1352;-61
2021/07/27 07:55:37;;;;;;;;;;;21.30;99.90;;;;;;2099758;28;1224;-59
2021/07/27 07:56:57;;;;;;;;;;;21.30;99.90;;;;;;2089604;28;1121;-58
2021/07/27 07:58:16;;;;;;;;;;;21.30;99.90;;;;;;2079067;28;1018;-57
2021/07/27 07:59:36;;;;;;;;;;;21.40;99.90;;;;;;2097401;28;979;-61
2021/07/27 08:00:55;;;;;;;;;;;21.30;99.90;;;;;;2090834;28;1307;-56
2021/07/27 08:02:15;;;;;;;;;;;21.30;99.90;;;;;;2090228;28;1313;-58
2021/07/27 08:03:34;;;;;;;;;;;21.30;99.90;;;;;;2089933;28;1164;-59
2021/07/27 08:04:54;;;;;;;;;;;21.30;99.90;;;;;;2081489;28;1979;-60
2021/07/27 08:06:13;;;;;;;;;;;21.30;99.90;;;;;;2091221;28;1462;-58
2021/07/27 08:07:36;;;;;;;;;;;21.30;99.90;;;;;;2089129;28;1007;-59
2021/07/27 08:08:55;;;;;;;;;;;21.30;99.90;;;;;;2091144;28;1073;-60
2021/07/27 08:10:14;;;;;;;;;;;21.30;99.90;;;;;;2099045;28;1362;-58